Time;durP1;ratioP1;P1;durP2;ratioP2;P2;SDS_P1;SDS_P2;PMS_P1;PMS_P2;Temp;Humidity;BMP_temperature;BMP_pressure;BME280_temperature;BME280_humidity;BME280_pressure;Samples;Min_cycle;Max_cycle;Signal;HPM_P1;HPM_P2
2022/01/05 00:01:42;;;;;;;4.70;3.20;;;;;;;4.02;90.19;98291.45;87107;1290;95474;-68
2022/01/05 00:03:51;;;;;;;6.00;3.90;;;;;;;4.01;90.19;98285.27;87277;1287;82067;-69
2022/01/05 00:05:56;;;;;;;5.10;3.70;;;;;;;3.99;90.29;98291.36;87279;1287;82782;-70
2022/01/05 00:08:06;;;;;;;5.70;3.50;;;;;;;3.97;90.41;98293.23;87290;1287;99352;-70
2022/01/05 00:10:15;;;;;;;7.50;4.10;;;;;;;3.96;90.37;98292.81;87306;1287;89884;-68
2022/01/05 00:12:23;;;;;;;6.10;3.70;;;;;;;3.96;90.43;98295.70;87276;1287;95770;-70
2022/01/05 00:14:35;;;;;;;9.00;4.60;;;;;;;3.93;90.32;98303.03;87280;1287;82532;-68
2022/01/05 00:16:41;;;;;;;6.20;3.80;;;;;;;3.90;90.49;98303.17;87311;1287;82597;-69
2022/01/05 00:18:47;;;;;;;6.80;5.00;;;;;;;3.89;90.47;98310.49;87283;1287;101429;-68
2022/01/05 00:20:53;;;;;;;7.00;4.60;;;;;;;3.86;90.30;98316.20;87316;1287;87866;-70
2022/01/05 00:22:58;;;;;;;8.40;5.90;;;;;;;3.91;90.50;98318.35;87318;1287;95967;-69
2022/01/05 00:25:09;;;;;;;9.40;5.90;;;;;;;4.00;90.73;98320.77;87273;1287;79121;-69
2022/01/05 00:27:15;;;;;;;8.70;5.80;;;;;;;4.06;90.61;98315.22;87292;1287;82010;-68
2022/01/05 00:29:24;;;;;;;10.70;6.20;;;;;;;4.04;90.62;98323.10;87287;1287;98480;-69
2022/01/05 00:31:30;;;;;;;9.10;5.90;;;;;;;3.97;90.49;98328.70;87313;1287;89986;-68
2022/01/05 00:33:38;;;;;;;8.70;5.90;;;;;;;3.90;90.51;98329.36;87306;1288;93559;-69
2022/01/05 00:35:47;;;;;;;9.90;6.70;;;;;;;3.85;90.56;98327.86;87305;1287;82506;-68
2022/01/05 00:37:52;;;;;;;11.00;6.30;;;;;;;3.84;90.63;98329.08;87310;1287;82510;-68
2022/01/05 00:39:58;;;;;;;11.30;6.80;;;;;;;3.90;90.85;98326.61;87306;1287;99309;-69
2022/01/05 00:42:06;;;;;;;11.50;6.90;;;;;;;3.98;90.93;98331.70;87147;1288;87590;-70
2022/01/05 00:44:12;;;;;;;11.60;7.50;;;;;;;4.09;91.14;98336.70;87272;1287;95907;-69
2022/01/05 00:46:18;;;;;;;10.50;6.80;;;;;;;4.24;91.26;98339.27;87298;1287;79348;-69
2022/01/05 00:48:29;;;;;;;11.70;7.60;;;;;;;4.34;91.25;98340.40;87282;1287;79472;-68
2022/01/05 00:50:36;;;;;;;9.80;6.90;;;;;;;4.48;91.39;98339.27;87279;1287;98916;-68
2022/01/05 00:52:42;;;;;;;11.10;7.70;;;;;;;4.60;91.19;98341.90;87308;1287;86374;-67
2022/01/05 00:54:51;;;;;;;12.00;8.20;;;;;;;4.66;91.19;98349.44;87293;1287;95994;-68
2022/01/05 00:56:57;;;;;;;12.20;7.90;;;;;;;4.74;91.16;98351.64;87276;1287;78090;-69
2022/01/05 00:59:03;;;;;;;13.60;8.30;;;;;;;4.73;91.10;98356.34;87303;1287;80645;-70
2022/01/05 01:01:09;;;;;;;14.20;8.10;;;;;;;4.72;91.09;98357.11;87261;1287;99783;-68
2022/01/05 01:03:17;;;;;;;10.60;7.80;;;;;;;4.71;91.02;98358.58;87273;1287;89204;-69
2022/01/05 01:05:26;;;;;;;10.30;7.50;;;;;;;4.72;90.98;98362.00;87280;1287;95524;-69
2022/01/05 01:07:32;;;;;;;11.00;7.40;;;;;;;4.72;91.09;98361.67;87277;1287;81288;-68
2022/01/05 01:09:37;;;;;;;10.40;6.70;;;;;;;4.74;91.10;98359.66;87318;1287;79860;-68
2022/01/05 01:11:43;;;;;;;9.80;6.70;;;;;;;4.76;91.04;98362.23;87289;1287;99379;-67
2022/01/05 01:13:52;;;;;;;10.50;6.60;;;;;;;4.82;91.35;98365.16;87283;1287;87983;-68
2022/01/05 01:15:57;;;;;;;10.90;7.20;;;;;;;4.90;91.21;98361.84;87295;1287;95365;-68
2022/01/05 01:18:03;;;;;;;11.40;7.20;;;;;;;4.92;91.33;98361.67;87289;1287;82803;-68
2022/01/05 01:20:11;;;;;;;10.80;7.30;;;;;;;5.01;91.13;98361.44;87305;1287;82599;-68
2022/01/05 01:22:17;;;;;;;11.10;7.80;;;;;;;5.10;91.20;98361.74;87311;1287;100276;-67
2022/01/05 01:24:27;;;;;;;13.80;8.40;;;;;;;5.16;91.08;98364.84;87296;1287;88462;-68
2022/01/05 01:26:35;;;;;;;14.60;9.60;;;;;;;5.16;91.10;98368.76;87285;1287;95642;-70
2022/01/05 01:28:41;;;;;;;16.50;9.10;;;;;;;5.17;91.03;98368.27;87310;1287;81585;-68
2022/01/05 01:30:47;;;;;;;16.00;8.70;;;;;;;5.16;90.90;98372.00;87314;1287;83159;-68
2022/01/05 01:32:56;;;;;;;13.00;8.90;;;;;;;5.15;91.06;98378.36;87305;1287;100068;-69
2022/01/05 01:35:08;;;;;;;13.40;8.50;;;;;;;5.16;91.06;98382.92;87309;1287;88585;-69
2022/01/05 01:37:15;;;;;;;17.50;9.60;;;;;;;5.18;91.19;98381.52;87285;1287;95390;-69
2022/01/05 01:39:21;;;;;;;12.40;8.10;;;;;;;5.21;91.06;98377.97;87280;1287;81127;-69
2022/01/05 01:41:27;;;;;;;12.20;8.80;;;;;;;5.27;91.21;98382.42;87356;1287;81356;-70
2022/01/05 01:43:36;;;;;;;14.30;8.80;;;;;;;5.31;91.13;98383.02;87323;1287;98370;-70
2022/01/05 01:45:45;;;;;;;15.90;9.30;;;;;;;5.33;91.16;98385.68;87307;1287;87992;-68
2022/01/05 01:47:54;;;;;;;13.70;9.00;;;;;;;5.34;91.21;98391.16;87304;1287;94584;-68
2022/01/05 01:50:00;;;;;;;14.20;8.70;;;;;;;5.35;91.20;98393.27;87330;1287;81230;-68
2022/01/05 01:52:09;;;;;;;16.40;9.00;;;;;;;5.39;91.19;98393.06;87333;1287;81064;-69
2022/01/05 01:54:19;;;;;;;15.70;9.10;;;;;;;5.43;91.22;98391.09;87351;1287;100363;-68
2022/01/05 01:56:32;;;;;;;14.60;9.40;;;;;;;5.47;91.18;98392.16;87324;1287;88928;-68
2022/01/05 01:58:41;;;;;;;16.00;10.20;;;;;;;5.48;91.35;98389.32;87267;1287;95582;-68
2022/01/05 02:00:47;;;;;;;14.70;10.10;;;;;;;5.47;91.21;98391.95;87647;1287;80303;-69
2022/01/05 02:02:53;;;;;;;14.40;9.50;;;;;;;5.45;91.22;98392.52;87330;1287;80746;-69
2022/01/05 02:05:03;;;;;;;15.30;9.10;;;;;;;5.45;91.16;98398.95;87328;1287;100231;-67
2022/01/05 02:07:09;;;;;;;17.50;10.10;;;;;;;5.45;91.15;98394.92;87325;1287;88931;-68
2022/01/05 02:09:15;;;;;;;16.30;10.40;;;;;;;5.50;91.11;98396.15;87129;1290;95412;-68
2022/01/05 02:11:21;;;;;;;16.00;10.10;;;;;;;5.54;91.23;98393.98;87345;1287;81227;-69
2022/01/05 02:13:27;;;;;;;16.40;10.30;;;;;;;5.56;91.18;98401.43;87198;1290;83214;-69
2022/01/05 02:15:33;;;;;;;14.50;10.00;;;;;;;5.60;91.25;98403.91;87341;1287;98537;-66
2022/01/05 02:17:53;;;;;;;16.60;10.50;;;;;;;5.66;91.18;98404.92;87207;1288;86666;-67
2022/01/05 02:19:59;;;;;;;17.50;10.60;;;;;;;5.69;91.30;98408.51;87311;1287;94493;-68
2022/01/05 02:22:06;;;;;;;16.30;10.70;;;;;;;5.70;91.17;98409.48;87168;1287;78995;-68
2022/01/05 02:24:12;;;;;;;16.00;10.80;;;;;;;5.71;91.22;98408.63;87341;1287;83303;-68
2022/01/05 02:26:21;;;;;;;14.50;10.90;;;;;;;5.78;91.40;98398.29;87307;1287;100013;-68
2022/01/05 02:28:28;;;;;;;17.20;11.60;;;;;;;5.81;91.20;98396.40;87312;1287;87418;-70
2022/01/05 02:30:38;;;;;;;17.20;11.00;;;;;;;5.77;91.07;98400.64;87123;1290;96236;-69
2022/01/05 02:32:46;;;;;;;17.30;11.80;;;;;;;5.72;91.10;98403.11;87155;1288;80320;-69
2022/01/05 02:34:55;;;;;;;16.60;10.60;;;;;;;5.73;91.19;98404.93;87321;1287;79774;-69
2022/01/05 02:37:01;;;;;;;17.40;11.00;;;;;;;5.72;91.05;98412.46;87320;1287;100003;-69
2022/01/05 02:39:07;;;;;;;17.60;10.90;;;;;;;5.72;91.01;98410.61;87363;1287;87751;-69
2022/01/05 02:41:14;;;;;;;16.90;11.40;;;;;;;5.72;91.04;98413.38;87307;1287;94821;-69
2022/01/05 02:43:20;;;;;;;16.70;11.10;;;;;;;5.75;91.03;98414.94;87331;1287;81491;-69
2022/01/05 02:45:27;;;;;;;18.40;11.60;;;;;;;5.78;91.29;98413.21;87315;1287;79813;-70
2022/01/05 02:47:33;;;;;;;18.90;11.40;;;;;;;5.79;91.21;98416.67;87110;1290;99808;-70
2022/01/05 02:49:42;;;;;;;17.30;11.40;;;;;;;5.78;91.25;98415.86;87290;1287;87290;-70
2022/01/05 02:51:49;;;;;;;18.00;11.50;;;;;;;5.83;91.28;98420.09;87141;1287;94024;-69
2022/01/05 02:53:58;;;;;;;19.90;11.30;;;;;;;5.88;91.09;98420.29;87328;1287;81883;-71
2022/01/05 02:56:08;;;;;;;19.00;13.00;;;;;;;5.90;91.10;98423.16;87349;1287;84157;-70
2022/01/05 02:58:13;;;;;;;17.90;12.60;;;;;;;5.91;91.11;98428.45;87225;1287;99546;-71
2022/01/05 03:00:20;;;;;;;20.60;13.10;;;;;;;5.95;91.16;98431.65;87355;1287;87115;-69
2022/01/05 03:02:25;;;;;;;19.90;13.50;;;;;;;5.98;90.96;98433.59;87304;1287;94057;-69
2022/01/05 03:04:34;;;;;;;19.60;13.60;;;;;;;5.93;91.15;98435.73;87316;1287;81514;-68
2022/01/05 03:06:40;;;;;;;19.80;12.70;;;;;;;5.90;91.04;98438.91;87313;1287;83910;-71
2022/01/05 03:08:49;;;;;;;18.00;11.90;;;;;;;5.88;91.22;98442.99;87315;1287;100065;-70
2022/01/05 03:10:56;;;;;;;19.80;12.20;;;;;;;5.88;91.19;98447.11;87333;1287;89282;-70
2022/01/05 03:13:01;;;;;;;19.40;13.50;;;;;;;5.92;91.16;98455.52;87330;1287;94043;-70
2022/01/05 03:15:11;;;;;;;19.80;14.00;;;;;;;5.92;91.23;98454.20;87321;1287;81901;-69
2022/01/05 03:17:17;;;;;;;22.60;12.00;;;;;;;5.89;91.22;98448.85;87219;1288;80950;-69
2022/01/05 03:19:23;;;;;;;16.90;11.90;;;;;;;5.94;91.27;98447.20;87322;1287;97681;-69
2022/01/05 03:21:33;;;;;;;17.70;12.00;;;;;;;5.97;91.37;98446.58;87324;1287;88464;-71
2022/01/05 03:23:39;;;;;;;19.70;11.60;;;;;;;6.02;91.18;98444.13;87313;1287;93708;-69
2022/01/05 03:25:45;;;;;;;19.70;12.20;;;;;;;6.00;91.30;98439.48;87316;1287;80219;-68
2022/01/05 03:27:53;;;;;;;19.40;12.40;;;;;;;6.02;91.22;98439.52;87349;1287;81552;-67
2022/01/05 03:29:59;;;;;;;17.60;13.00;;;;;;;6.09;91.18;98439.89;87317;1287;100453;-70
2022/01/05 03:32:06;;;;;;;19.20;13.50;;;;;;;6.12;91.15;98437.61;87305;1287;89232;-70
2022/01/05 03:34:17;;;;;;;18.40;13.40;;;;;;;6.10;91.17;98437.77;87317;1287;95961;-70
2022/01/05 03:36:26;;;;;;;20.80;13.90;;;;;;;6.13;91.20;98431.88;87177;1288;77721;-68
2022/01/05 03:38:34;;;;;;;18.70;14.00;;;;;;;6.11;91.21;98433.69;87319;1287;82928;-70
2022/01/05 03:40:44;;;;;;;18.50;13.00;;;;;;;6.09;91.13;98435.96;87336;1287;97999;-70
2022/01/05 03:42:53;;;;;;;17.80;13.30;;;;;;;6.09;91.14;98429.20;87323;1287;88916;-71
2022/01/05 03:45:02;;;;;;;20.50;13.40;;;;;;;6.08;90.95;98422.06;87351;1287;94334;-67
2022/01/05 03:47:11;;;;;;;20.00;14.00;;;;;;;6.04;91.20;98430.05;87363;1287;83180;-68
2022/01/05 03:49:16;;;;;;;20.60;13.30;;;;;;;6.05;90.94;98429.25;87326;1287;82705;-68
2022/01/05 03:51:22;;;;;;;18.80;13.60;;;;;;;6.09;91.06;98429.45;87301;1287;99642;-69
2022/01/05 03:53:28;;;;;;;17.90;13.70;;;;;;;6.10;91.09;98426.56;87326;1287;87056;-70
2022/01/05 03:55:36;;;;;;;19.60;14.10;;;;;;;6.14;91.09;98428.20;87283;1287;95366;-69
2022/01/05 03:57:42;;;;;;;18.90;13.90;;;;;;;6.16;91.10;98427.16;87331;1287;79955;-69
2022/01/05 03:59:49;;;;;;;22.50;15.30;;;;;;;6.18;91.14;98428.27;87357;1287;80483;-67
2022/01/05 04:01:55;;;;;;;19.60;15.00;;;;;;;6.19;91.17;98432.23;87010;1287;441493;-68
2022/01/05 04:04:01;;;;;;;22.10;15.50;;;;;;;6.21;91.05;98427.36;87134;1290;90476;-71
2022/01/05 04:06:11;;;;;;;22.60;16.30;;;;;;;6.15;90.87;98423.21;87222;1288;95131;-70
2022/01/05 04:08:20;;;;;;;21.60;15.20;;;;;;;6.03;90.73;98427.48;87289;1287;81864;-70
2022/01/05 04:10:27;;;;;;;21.50;15.70;;;;;;;5.93;90.54;98422.08;87347;1287;82037;-70
2022/01/05 04:12:36;;;;;;;19.60;14.70;;;;;;;5.80;90.70;98425.41;87312;1287;99095;-71
2022/01/05 04:14:42;;;;;;;17.10;13.60;;;;;;;5.71;90.71;98424.05;87366;1287;89149;-68
2022/01/05 04:16:52;;;;;;;19.40;14.80;;;;;;;5.63;90.52;98427.27;87323;1287;95551;-70
2022/01/05 04:18:58;;;;;;;18.80;14.40;;;;;;;5.55;90.45;98424.38;87330;1287;79583;-70
2022/01/05 04:21:07;;;;;;;19.80;14.00;;;;;;;5.48;90.57;98425.77;87369;1287;83275;-71
2022/01/05 04:23:13;;;;;;;20.40;14.40;;;;;;;5.41;90.55;98429.69;87338;1287;98416;-70
2022/01/05 04:25:18;;;;;;;20.40;14.50;;;;;;;5.35;90.52;98425.15;87375;1287;87046;-67
2022/01/05 04:27:27;;;;;;;17.00;14.20;;;;;;;5.27;90.56;98427.04;87322;1287;93422;-68
2022/01/05 04:29:36;;;;;;;18.80;14.50;;;;;;;5.19;90.58;98427.02;87206;1288;78866;-69
2022/01/05 04:31:41;;;;;;;22.30;15.30;;;;;;;5.14;90.49;98429.98;87351;1287;82382;-70
2022/01/05 04:33:47;;;;;;;21.50;16.70;;;;;;;5.06;90.59;98430.27;87354;1287;99416;-70
2022/01/05 04:35:53;;;;;;;21.30;15.60;;;;;;;4.99;90.46;98433.77;87337;1287;88002;-66
2022/01/05 04:38:02;;;;;;;19.00;15.20;;;;;;;4.94;90.76;98436.05;87331;1287;95182;-68
2022/01/05 04:40:12;;;;;;;18.90;14.80;;;;;;;4.92;90.76;98443.34;87364;1287;81033;-68
2022/01/05 04:42:20;;;;;;;21.40;15.20;;;;;;;4.96;90.74;98444.67;87374;1287;82486;-67
2022/01/05 04:44:30;;;;;;;19.80;14.70;;;;;;;4.98;90.93;98450.80;87352;1287;100105;-68
2022/01/05 04:46:36;;;;;;;20.20;15.30;;;;;;;4.97;90.93;98449.66;87367;1287;88203;-68
2022/01/05 04:48:42;;;;;;;20.00;14.70;;;;;;;5.04;91.17;98453.62;87281;1287;95850;-68
2022/01/05 04:50:51;;;;;;;21.30;16.00;;;;;;;5.07;91.10;98455.73;87367;1286;82737;-70
2022/01/05 04:52:57;;;;;;;20.50;15.70;;;;;;;5.15;91.26;98456.16;87360;1287;81921;-71
2022/01/05 04:55:08;;;;;;;19.60;16.20;;;;;;;5.22;91.25;98459.67;87339;1287;99449;-68
2022/01/05 04:57:18;;;;;;;21.20;15.90;;;;;;;5.30;91.34;98461.34;87368;1287;88849;-67
2022/01/05 04:59:27;;;;;;;21.70;15.50;;;;;;;5.35;91.39;98469.34;87341;1287;95855;-68
2022/01/05 05:01:36;;;;;;;20.80;16.40;;;;;;;5.41;91.38;98468.23;87320;1287;79014;-69
2022/01/05 05:03:45;;;;;;;21.80;16.10;;;;;;;5.44;91.41;98463.67;87344;1287;82489;-70
2022/01/05 05:05:50;;;;;;;22.50;16.40;;;;;;;5.45;91.49;98459.14;87343;1287;100327;-67
2022/01/05 05:07:57;;;;;;;21.10;16.90;;;;;;;5.47;91.38;98462.80;87332;1287;87768;-68
2022/01/05 05:10:05;;;;;;;23.10;16.50;;;;;;;5.45;91.17;98458.52;87344;1287;93266;-70
2022/01/05 05:12:14;;;;;;;19.50;15.90;;;;;;;5.41;91.29;98447.73;87330;1287;81466;-70
2022/01/05 05:14:22;;;;;;;20.90;15.30;;;;;;;5.39;91.32;98438.50;87339;1287;82669;-70
2022/01/05 05:16:28;;;;;;;20.00;14.80;;;;;;;5.41;91.25;98437.64;87334;1287;100426;-68
2022/01/05 05:18:37;;;;;;;18.80;15.50;;;;;;;5.43;91.29;98440.27;87360;1287;86884;-68
2022/01/05 05:20:43;;;;;;;17.40;14.90;;;;;;;5.52;91.36;98442.34;87317;1287;95176;-70
2022/01/05 05:22:49;;;;;;;17.40;14.80;;;;;;;5.56;91.40;98450.23;87347;1287;79473;-69
2022/01/05 05:24:54;;;;;;;17.50;14.30;;;;;;;5.56;91.38;98468.59;87341;1287;81591;-68
2022/01/05 05:27:00;;;;;;;18.30;14.90;;;;;;;5.58;91.38;98484.73;87332;1287;99384;-70
2022/01/05 05:29:06;;;;;;;17.70;14.00;;;;;;;5.59;91.50;98496.95;87302;1287;88374;-69
2022/01/05 05:31:11;;;;;;;17.20;15.10;;;;;;;5.64;91.43;98492.17;87324;1287;93614;-67
2022/01/05 05:33:17;;;;;;;19.10;14.90;;;;;;;5.69;91.59;98490.52;87322;1287;80440;-68
2022/01/05 05:35:26;;;;;;;20.60;16.90;;;;;;;5.70;91.29;98486.98;87159;1288;79959;-70
2022/01/05 05:37:32;;;;;;;19.70;15.90;;;;;;;5.70;91.42;98494.89;87343;1287;98549;-69
2022/01/05 05:39:38;;;;;;;20.20;16.60;;;;;;;5.69;91.40;98501.07;87322;1287;88543;-71
2022/01/05 05:41:44;;;;;;;19.80;15.80;;;;;;;5.68;91.32;98501.52;87288;1287;95053;-70
2022/01/05 05:43:50;;;;;;;21.30;16.50;;;;;;;5.68;91.29;98508.00;87346;1287;79574;-69
2022/01/05 05:45:56;;;;;;;21.40;16.20;;;;;;;5.68;91.31;98512.17;87293;1287;81027;-69
2022/01/05 05:48:01;;;;;;;21.10;15.60;;;;;;;5.67;91.29;98517.48;87336;1287;97259;-68
2022/01/05 05:50:09;;;;;;;17.60;15.20;;;;;;;5.68;91.26;98524.12;87109;1289;87737;-72
2022/01/05 05:52:15;;;;;;;18.10;14.60;;;;;;;5.70;91.23;98526.88;87250;1287;95031;-70
2022/01/05 05:54:24;;;;;;;23.60;16.20;;;;;;;5.76;91.42;98534.05;87317;1287;80148;-67
2022/01/05 05:56:30;;;;;;;19.40;15.00;;;;;;;5.81;91.35;98532.95;87170;1287;83782;-71
2022/01/05 05:58:36;;;;;;;22.30;15.50;;;;;;;5.85;91.40;98540.31;87313;1286;98980;-71
2022/01/05 06:00:41;;;;;;;18.60;14.80;;;;;;;5.90;91.27;98541.69;87336;1287;90087;-67
2022/01/05 06:02:49;;;;;;;18.40;14.90;;;;;;;5.92;91.13;98543.87;87320;1287;94616;-66
2022/01/05 06:04:54;;;;;;;18.80;15.50;;;;;;;5.94;91.13;98539.38;87225;1287;78588;-69
2022/01/05 06:07:00;;;;;;;18.50;16.00;;;;;;;5.90;91.14;98538.63;87354;1287;80902;-69
2022/01/05 06:09:06;;;;;;;17.70;14.60;;;;;;;5.86;91.10;98542.51;87342;1287;100247;-69
2022/01/05 06:11:12;;;;;;;15.50;12.10;;;;;;;5.83;91.04;98544.33;87326;1287;89132;-67
2022/01/05 06:13:18;;;;;;;16.20;12.10;;;;;;;5.81;90.94;98547.24;87310;1287;95882;-67
2022/01/05 06:15:23;;;;;;;13.00;10.80;;;;;;;5.78;90.84;98550.91;87296;1287;79630;-69
2022/01/05 06:17:29;;;;;;;14.10;11.60;;;;;;;5.81;90.84;98554.96;87316;1287;82791;-70
2022/01/05 06:19:38;;;;;;;15.00;12.20;;;;;;;5.81;90.78;98554.45;87166;1287;100339;-69
2022/01/05 06:21:44;;;;;;;14.20;11.60;;;;;;;5.83;90.84;98554.41;87195;1287;88751;-69
2022/01/05 06:23:50;;;;;;;15.60;12.50;;;;;;;5.84;90.75;98557.62;87305;1287;95009;-69
2022/01/05 06:25:55;;;;;;;14.70;12.60;;;;;;;5.85;90.79;98559.69;87162;1288;79885;-69
2022/01/05 06:28:01;;;;;;;15.20;12.90;;;;;;;5.83;90.85;98565.06;87355;1287;80346;-70
2022/01/05 06:30:10;;;;;;;18.80;14.20;;;;;;;5.87;90.78;98567.45;87329;1287;100021;-67
2022/01/05 06:32:21;;;;;;;16.00;13.70;;;;;;;5.87;90.78;98568.47;87066;1290;89908;-68
2022/01/05 06:34:27;;;;;;;19.50;14.90;;;;;;;5.83;90.73;98574.52;87242;1288;95224;-70
2022/01/05 06:36:33;;;;;;;17.60;14.40;;;;;;;5.78;90.76;98577.00;87297;1287;79356;-69
2022/01/05 06:38:38;;;;;;;17.50;13.60;;;;;;;5.79;90.85;98583.20;87303;1287;80359;-69
2022/01/05 06:40:47;;;;;;;16.10;12.70;;;;;;;5.76;90.73;98580.67;87336;1287;100130;-70
2022/01/05 06:42:52;;;;;;;16.10;12.50;;;;;;;5.76;90.63;98579.34;87313;1287;86863;-67
2022/01/05 06:45:04;;;;;;;14.00;11.80;;;;;;;5.78;90.69;98578.45;87299;1287;93844;-67
2022/01/05 06:47:12;;;;;;;13.60;11.10;;;;;;;5.75;90.75;98581.33;87323;1287;81662;-67
2022/01/05 06:49:20;;;;;;;14.30;11.00;;;;;;;5.79;90.59;98582.28;87307;1287;80425;-69
2022/01/05 06:51:27;;;;;;;12.20;10.90;;;;;;;5.80;90.68;98578.21;87314;1287;100548;-68
2022/01/05 06:53:33;;;;;;;15.40;10.50;;;;;;;5.81;90.71;98581.42;87331;1287;88531;-68
2022/01/05 06:55:39;;;;;;;13.30;10.70;;;;;;;5.80;90.69;98589.38;87087;1290;95268;-70
2022/01/05 06:57:47;;;;;;;13.40;10.00;;;;;;;5.80;90.60;98591.98;87340;1287;77321;-70
2022/01/05 06:59:59;;;;;;;16.10;11.90;;;;;;;5.77;90.41;98591.27;87338;1287;82281;-67
2022/01/05 07:02:06;;;;;;;12.10;8.80;;;;;;;5.74;90.39;98588.34;87323;1287;100249;-66
2022/01/05 07:04:12;;;;;;;12.00;8.80;;;;;;;5.71;90.52;98587.54;87327;1287;86621;-67
2022/01/05 07:06:21;;;;;;;12.40;8.70;;;;;;;5.72;90.37;98589.06;87299;1287;95485;-65
2022/01/05 07:08:33;;;;;;;9.80;7.70;;;;;;;5.70;90.35;98590.45;87300;1287;80097;-67
2022/01/05 07:10:43;;;;;;;14.20;8.20;;;;;;;5.68;90.40;98585.80;87317;1287;81740;-66
2022/01/05 07:12:52;;;;;;;9.70;7.90;;;;;;;5.70;90.45;98580.83;87359;1287;100432;-66
2022/01/05 07:15:01;;;;;;;9.30;7.50;;;;;;;5.73;90.20;98574.89;87321;1287;88992;-66
2022/01/05 07:17:10;;;;;;;10.40;7.20;;;;;;;5.70;90.55;98572.87;87342;1287;94577;-66
2022/01/05 07:19:20;;;;;;;11.40;8.80;;;;;;;5.70;90.62;98578.64;87333;1287;78618;-67
2022/01/05 07:21:26;;;;;;;11.30;7.70;;;;;;;5.72;90.46;98580.16;87372;1287;81521;-65
2022/01/05 07:23:32;;;;;;;11.40;8.50;;;;;;;5.70;90.56;98584.93;87339;1287;98670;-67
2022/01/05 07:25:38;;;;;;;10.70;8.90;;;;;;;5.67;90.54;98587.17;87320;1287;89920;-67
2022/01/05 07:27:51;;;;;;;10.20;8.70;;;;;;;5.68;90.69;98582.84;87319;1287;96629;-70
2022/01/05 07:30:00;;;;;;;9.80;8.00;;;;;;;5.67;90.53;98579.75;87324;1287;81625;-65
2022/01/05 07:32:11;;;;;;;12.40;8.70;;;;;;;5.66;90.85;98576.45;87347;1287;82423;-65
2022/01/05 07:34:19;;;;;;;10.70;9.10;;;;;;;5.68;90.79;98574.59;87311;1287;97295;-65
2022/01/05 07:36:25;;;;;;;13.20;8.80;;;;;;;5.71;90.56;98578.27;87324;1287;88429;-65
2022/01/05 07:38:31;;;;;;;13.90;8.80;;;;;;;5.79;90.67;98581.75;87344;1287;93930;-66
2022/01/05 07:40:40;;;;;;;10.30;8.10;;;;;;;5.83;90.62;98583.27;87299;1287;79332;-67
2022/01/05 07:42:46;;;;;;;14.10;10.20;;;;;;;5.83;90.58;98586.41;87344;1287;81059;-67
2022/01/05 07:44:53;;;;;;;11.30;10.00;;;;;;;5.79;90.78;98589.91;87354;1287;97459;-66
2022/01/05 07:46:59;;;;;;;14.40;10.90;;;;;;;5.79;90.73;98584.05;87333;1287;88902;-66
2022/01/05 07:49:06;;;;;;;14.50;10.90;;;;;;;5.77;90.80;98576.59;87302;1287;95154;-66
2022/01/05 07:51:13;;;;;;;16.20;13.00;;;;;;;5.76;90.54;98575.73;87315;1287;80287;-66
2022/01/05 07:53:22;;;;;;;15.70;13.00;;;;;;;5.76;90.66;98583.67;87091;1290;81972;-66
2022/01/05 07:55:30;;;;;;;17.00;13.90;;;;;;;5.75;90.79;98588.08;87321;1287;98886;-65
2022/01/05 07:58:02;;;;;;;17.00;13.80;;;;;;;5.79;90.76;98588.09;87342;1287;88499;-67
2022/01/05 08:00:15;;;;;;;15.00;13.20;;;;;;;5.86;90.60;98585.01;87081;1290;92971;-67
2022/01/05 08:02:22;;;;;;;16.60;13.20;;;;;;;5.89;90.59;98581.96;87305;1287;81952;-67
2022/01/05 08:04:31;;;;;;;17.70;14.10;;;;;;;5.90;90.66;98581.17;87318;1287;82713;-67
2022/01/05 08:06:37;;;;;;;17.40;13.60;;;;;;;5.90;90.59;98582.17;87325;1287;99531;-67
2022/01/05 08:08:43;;;;;;;18.40;14.90;;;;;;;5.92;90.58;98576.03;87292;1287;88277;-67
2022/01/05 08:10:49;;;;;;;17.10;14.70;;;;;;;5.89;90.73;98570.34;87333;1287;94359;-65
2022/01/05 08:12:55;;;;;;;17.60;14.70;;;;;;;5.88;90.80;98568.06;87113;1290;80466;-65
2022/01/05 08:15:01;;;;;;;23.80;15.10;;;;;;;5.90;90.62;98563.45;87317;1287;81713;-66
2022/01/05 08:17:11;;;;;;;17.20;14.20;;;;;;;5.91;90.49;98567.29;87320;1287;98409;-66
2022/01/05 08:19:20;;;;;;;18.30;13.80;;;;;;;5.88;90.49;98561.02;87333;1287;88350;-66
2022/01/05 08:21:30;;;;;;;18.80;14.00;;;;;;;5.86;90.61;98561.30;87279;1287;96065;-63
2022/01/05 08:23:41;;;;;;;16.90;14.50;;;;;;;5.86;90.66;98568.44;87091;1290;79160;-66
2022/01/05 08:25:48;;;;;;;18.70;14.00;;;;;;;5.88;90.63;98566.70;87344;1287;80763;-66
2022/01/05 08:27:58;;;;;;;16.80;13.60;;;;;;;5.86;90.63;98565.63;87337;1287;99593;-65
2022/01/05 08:30:12;;;;;;;17.80;13.70;;;;;;;5.86;90.64;98567.45;87348;1287;89264;-66
2022/01/05 08:32:18;;;;;;;17.30;14.00;;;;;;;5.89;90.54;98564.48;87326;1287;95616;-68
2022/01/05 08:34:24;;;;;;;16.20;13.40;;;;;;;5.94;90.48;98570.39;87067;1290;79353;-67
2022/01/05 08:36:46;;;;;;;16.20;13.00;;;;;;;5.94;90.53;98570.38;87349;1287;81119;-68
2022/01/05 08:39:01;;;;;;;17.20;13.80;;;;;;;5.97;90.36;98570.88;87335;1287;99067;-67
2022/01/05 08:41:08;;;;;;;17.80;14.30;;;;;;;5.94;90.23;98570.70;87215;1288;88303;-66
2022/01/05 08:43:17;;;;;;;18.20;12.90;;;;;;;5.89;90.16;98566.58;87331;1287;95606;-67
2022/01/05 08:45:26;;;;;;;15.60;12.80;;;;;;;5.88;90.24;98570.00;87340;1287;79055;-67
2022/01/05 08:47:33;;;;;;;16.10;12.00;;;;;;;5.86;90.46;98572.91;87228;1287;83101;-66
2022/01/05 08:49:43;;;;;;;15.40;11.80;;;;;;;5.85;90.36;98577.14;87194;1288;99215;-67
2022/01/05 08:51:54;;;;;;;16.10;12.20;;;;;;;5.89;90.00;98577.84;87232;1288;86553;-66
2022/01/05 08:54:03;;;;;;;14.70;11.80;;;;;;;5.88;90.20;98581.18;87174;1288;94875;-67
2022/01/05 08:56:13;;;;;;;15.40;11.70;;;;;;;5.87;90.31;98577.59;87041;1290;80737;-66
2022/01/05 08:58:21;;;;;;;15.70;11.70;;;;;;;5.90;90.38;98575.73;87335;1287;82476;-68
2022/01/05 09:00:30;;;;;;;14.90;12.00;;;;;;;5.92;90.54;98575.61;87350;1287;100163;-66
2022/01/05 09:02:37;;;;;;;18.70;13.00;;;;;;;6.01;90.26;98571.17;87339;1287;87991;-67
2022/01/05 09:04:43;;;;;;;15.80;11.60;;;;;;;6.00;90.14;98577.33;87302;1287;93637;-67
2022/01/05 09:06:54;;;;;;;15.00;10.50;;;;;;;5.98;90.17;98577.45;87290;1287;80874;-67
2022/01/05 09:09:04;;;;;;;16.80;10.90;;;;;;;5.94;90.19;98576.33;87070;1289;80207;-66
2022/01/05 09:11:11;;;;;;;13.50;10.60;;;;;;;5.97;90.23;98575.95;87333;1287;100176;-66
2022/01/05 09:13:17;;;;;;;14.60;11.50;;;;;;;5.99;90.26;98579.05;87351;1286;87963;-66
2022/01/05 09:15:28;;;;;;;12.20;10.60;;;;;;;6.09;90.18;98583.44;87322;1287;95706;-67
2022/01/05 09:17:35;;;;;;;13.20;10.50;;;;;;;6.18;90.18;98584.45;87334;1286;79120;-67
2022/01/05 09:19:42;;;;;;;16.30;11.60;;;;;;;6.19;90.17;98579.55;87349;1287;81792;-67
2022/01/05 09:21:49;;;;;;;15.30;12.30;;;;;;;6.25;90.07;98578.53;87342;1287;100172;-67
2022/01/05 09:23:59;;;;;;;16.50;12.50;;;;;;;6.30;89.96;98579.98;87319;1287;89144;-66
2022/01/05 09:26:05;;;;;;;17.40;13.30;;;;;;;6.40;89.92;98580.05;87323;1286;95719;-66
2022/01/05 09:28:14;;;;;;;18.30;14.20;;;;;;;6.46;89.90;98575.71;87316;1287;79563;-69
2022/01/05 09:30:22;;;;;;;19.20;14.80;;;;;;;6.52;89.89;98578.23;87337;1287;80484;-66
2022/01/05 09:32:32;;;;;;;17.80;14.40;;;;;;;6.59;89.71;98578.23;87327;1287;97540;-67
2022/01/05 09:34:40;;;;;;;17.40;14.00;;;;;;;6.66;89.59;98576.78;87359;1287;87707;-69
2022/01/05 09:36:57;;;;;;;16.30;13.90;;;;;;;6.66;89.66;98571.56;87325;1287;95438;-63
2022/01/05 09:44:10;;;;;;;17.30;14.40;;;;;;;6.83;89.46;98567.65;86781;1294;98746;-66
2022/01/05 09:46:36;;;;;;;20.10;15.30;;;;;;;6.85;89.46;98560.59;86786;1293;88135;-66
2022/01/05 09:49:01;;;;;;;21.90;14.80;;;;;;;6.85;89.60;98566.24;86779;1293;95792;-67
2022/01/05 09:51:10;;;;;;;19.00;14.70;;;;;;;6.90;89.47;98569.86;86781;1294;77887;-67
2022/01/05 09:53:18;;;;;;;18.10;14.30;;;;;;;6.86;89.49;98571.61;86799;1294;81666;-68
2022/01/05 09:55:25;;;;;;;20.00;14.70;;;;;;;6.93;89.34;98571.71;86784;1293;99929;-66
2022/01/05 09:57:34;;;;;;;17.50;14.70;;;;;;;6.99;89.39;98567.23;86800;1293;89034;-66
2022/01/05 09:59:44;;;;;;;16.00;13.70;;;;;;;7.01;89.53;98569.35;86659;1294;94808;-66
2022/01/05 10:01:52;;;;;;;16.20;13.60;;;;;;;7.04;89.47;98572.80;86765;1293;79816;-67